Terminal Aerodrome Forecast
Issued by NWS

Home | Current Version | Previous Version | Text Only | Print | Product List | Glossary On
Versions: 1 2 3 4 5 6 7 8 9 10 11 12 13 14 15 16 17 18 19 20 21 22 23 24 25 26 27
631
FTUS46 KPDT 231720
TAFDLS
TAF
KDLS 231720Z 2318/2418 VRB03KT 3/4SM -SN BR BKN005 OVC015
      TEMPO 2318/2321 2SM BR BKN018
     FM232100 32007KT 5SM BR BKN025
     FM240900 VRB04KT 1SM BR OVC008=

USA.gov is the U.S. government's official web portal to all federal, state and local government web resources and services.